Time;durP1;ratioP1;P1;durP2;ratioP2;P2;SDS_P1;SDS_P2;PMS_P1;PMS_P2;Temp;Humidity;BMP_temperature;BMP_pressure;BME280_temperature;BME280_humidity;BME280_pressure;Samples;Min_cycle;Max_cycle;Signal;HPM_P1;HPM_P2
2021/07/27 00:01:18;;;;;;;;;;;;;;;14.84;100.00;100692.16;4999533;28;20089;-65
2021/07/27 00:03:46;;;;;;;49.50;23.60;;;;;;;14.82;100.00;100688.84;4997383;28;20359;-65
2021/07/27 00:06:15;;;;;;;61.35;24.70;;;;;;;14.61;100.00;100685.09;4996412;28;20053;-66
2021/07/27 00:08:43;;;;;;;54.28;24.48;;;;;;;14.58;100.00;100684.66;4997930;28;20046;-66
2021/07/27 00:11:13;;;;;;;53.08;24.08;;;;;;;14.70;100.00;100693.91;4998513;28;20037;-66
2021/07/27 00:13:41;;;;;;;52.63;24.08;;;;;;;14.87;100.00;100678.34;5001261;28;20053;-65
2021/07/27 00:16:09;;;;;;;50.30;23.05;;;;;;;14.77;100.00;100685.88;4999580;28;20050;-65
2021/07/27 00:18:37;;;;;;;51.53;23.63;;;;;;;14.71;100.00;100684.00;4997243;28;20041;-65
2021/07/27 00:21:05;;;;;;;46.72;21.88;;;;;;;14.77;100.00;100685.88;4998597;28;20060;-66
2021/07/27 00:23:34;;;;;;;52.38;24.05;;;;;;;14.88;100.00;100687.22;4994109;28;20050;-65
2021/07/27 00:26:04;;;;;;;51.05;23.95;;;;;;;14.88;100.00;100685.38;5002506;28;20100;-65
2021/07/27 00:28:34;;;;;;;49.45;22.33;;;;;;;14.84;100.00;100680.56;4999250;28;20072;-65
2021/07/27 00:31:02;;;;;;;53.65;21.73;;;;;;;14.80;100.00;100682.84;5000090;28;20054;-65
2021/07/27 00:33:30;;;;;;;52.38;21.90;;;;;;;14.77;100.00;100673.31;4997675;28;20050;-65
2021/07/27 00:36:00;;;;;;;45.55;20.75;;;;;;;14.72;100.00;100678.41;4995679;28;20034;-66
2021/07/27 00:38:28;;;;;;;47.05;22.58;;;;;;;14.57;100.00;100674.94;5001347;28;20053;-66
2021/07/27 00:40:56;;;;;;;49.67;22.13;;;;;;;14.62;100.00;100668.00;4999519;28;20049;-66
2021/07/27 00:43:24;;;;;;;48.40;21.73;;;;;;;14.58;100.00;100664.00;4997607;28;20182;-66
2021/07/27 00:45:55;;;;;;;48.67;21.77;;;;;;;14.58;100.00;100663.19;5002004;28;20042;-64
2021/07/27 00:48:23;;;;;;;54.97;23.95;;;;;;;14.38;100.00;100661.13;4999159;28;20046;-70
2021/07/27 00:50:51;;;;;;;59.70;24.70;;;;;;;14.28;100.00;100661.44;5000983;28;20053;-66
2021/07/27 00:53:19;;;;;;;58.40;23.70;;;;;;;14.57;100.00;100661.50;4998027;28;20093;-65
2021/07/27 00:55:48;;;;;;;52.80;24.30;;;;;;;14.41;100.00;100662.59;4997805;28;20046;-66
2021/07/27 00:58:16;;;;;;;59.85;24.98;;;;;;;14.24;100.00;100659.34;5003380;28;20088;-66
2021/07/27 01:00:44;;;;;;;52.03;22.92;;;;;;;14.40;100.00;100659.09;4997598;28;20081;-67
2021/07/27 01:03:14;;;;;;;51.88;24.02;;;;;;;14.45;100.00;100659.34;5002840;28;20421;-65
2021/07/27 01:05:42;;;;;;;48.33;21.65;;;;;;;14.38;100.00;100654.94;5000045;28;20413;-66
2021/07/27 01:08:11;;;;;;;56.95;24.27;;;;;;;14.22;100.00;100646.09;5002987;28;20054;-66
2021/07/27 01:10:39;;;;;;;45.45;22.83;;;;;;;14.22;100.00;100643.41;4999887;28;20069;-65
2021/07/27 01:13:06;;;;;;;55.78;26.38;;;;;;;14.15;100.00;100647.91;4999496;28;20050;-65
2021/07/27 01:15:34;;;;;;;63.53;24.13;;;;;;;14.28;100.00;100641.81;5004695;28;20030;-66
2021/07/27 01:18:06;;;;;;;54.70;23.85;;;;;;;14.40;100.00;100642.97;5001712;28;20370;-65
2021/07/27 01:37:27;;;;;;;54.22;24.45;;;;;;;14.42;100.00;100642.78;4999719;28;20576;-65
2021/07/27 01:37:51;;;;;;;43.67;19.88;;;;;;;14.43;100.00;100622.94;4995652;28;20046;-65
2021/07/27 01:40:22;;;;;;;43.45;20.90;;;;;;;14.46;100.00;100614.50;5001241;28;20097;-64
2021/07/27 01:42:50;;;;;;;44.15;20.02;;;;;;;14.45;100.00;100623.59;4996568;28;20851;-65
2021/07/27 01:45:22;;;;;;;43.70;20.20;;;;;;;14.42;100.00;100616.75;5002508;28;20100;-64
2021/07/27 01:47:49;;;;;;;44.10;20.77;;;;;;;14.41;100.00;100612.38;5002873;28;20049;-65
2021/07/27 01:50:17;;;;;;;43.53;20.77;;;;;;;14.33;100.00;100604.47;4997401;28;20434;-65
2021/07/27 01:52:49;;;;;;;47.75;21.02;;;;;;;14.39;100.00;100595.66;5001524;28;20049;-65
2021/07/27 01:55:20;;;;;;;42.85;21.52;;;;;;;14.31;100.00;100603.00;5003384;28;20096;-65
2021/07/27 01:57:49;;;;;;;45.30;20.42;;;;;;;14.18;100.00;100603.72;4999192;28;20064;-65
2021/07/27 02:00:18;;;;;;;41.97;20.25;;;;;;;14.26;100.00;100600.88;4998538;28;20115;-66
2021/07/27 02:02:47;;;;;;;44.58;21.65;;;;;;;14.35;100.00;100602.44;4999942;28;20042;-63
2021/07/27 02:05:16;;;;;;;47.05;20.67;;;;;;;14.26;100.00;100599.03;4999478;28;20414;-66
2021/07/27 02:07:55;;;;;;;46.97;22.27;;;;;;;14.41;100.00;100598.94;4997346;28;20038;-64
2021/07/27 02:10:23;;;;;;;50.97;23.23;;;;;;;14.54;100.00;100600.09;4998733;28;20041;-65
2021/07/27 02:12:59;;;;;;;47.58;21.33;;;;;;;14.52;100.00;100602.16;4997648;28;20358;-62
2021/07/27 02:15:37;;;;;;;44.58;21.63;;;;;;;14.54;100.00;100603.59;5000054;28;20053;-63
2021/07/27 02:18:05;;;;;;;51.95;21.67;;;;;;;14.49;100.00;100598.00;5001771;28;20165;-64
2021/07/27 02:20:33;;;;;;;51.10;23.25;;;;;;;14.48;100.00;100593.66;4999496;28;20045;-64
2021/07/27 02:23:01;;;;;;;44.85;20.50;;;;;;;14.52;100.00;100586.03;4998012;28;20118;-64
2021/07/27 02:25:29;;;;;;;22.52;9.52;;;;;;;14.54;100.00;100583.97;5000152;28;20326;-63
2021/07/27 02:27:59;;;;;;;6.38;4.70;;;;;;;14.41;100.00;100587.38;5001637;28;20081;-64
2021/07/27 02:30:26;;;;;;;50.85;21.67;;;;;;;14.25;100.00;100583.13;4999136;28;20047;-64
2021/07/27 02:32:54;;;;;;;56.83;24.27;;;;;;;14.28;100.00;100582.72;4998632;28;20054;-64
2021/07/27 02:35:22;;;;;;;60.88;24.13;;;;;;;14.28;100.00;100578.19;5002290;28;20042;-64
2021/07/27 02:37:50;;;;;;;48.70;22.40;;;;;;;14.38;100.00;100583.22;4999221;28;20104;-64
2021/07/27 02:40:18;;;;;;;54.67;24.33;;;;;;;14.42;100.00;100587.19;5000711;28;20056;-64
2021/07/27 02:42:48;;;;;;;53.88;24.77;;;;;;;14.40;100.00;100594.63;4996379;28;20341;-64
2021/07/27 02:45:22;;;;;;;45.63;22.23;;;;;;;14.32;100.00;100592.06;4997547;28;20046;-65
2021/07/27 02:47:50;;;;;;;57.57;23.23;;;;;;;14.12;100.00;100579.28;5000733;28;20323;-64
2021/07/27 02:50:18;;;;;;;46.70;21.60;;;;;;;14.16;100.00;100579.75;4999664;28;20319;-64
2021/07/27 02:52:46;;;;;;;52.28;23.88;;;;;;;14.20;100.00;100577.50;4995453;28;20050;-64
2021/07/27 02:55:14;;;;;;;56.20;23.35;;;;;;;14.29;100.00;100573.66;5000076;28;20079;-64
2021/07/27 02:57:42;;;;;;;57.28;23.00;;;;;;;14.36;100.00;100568.31;4995120;28;20060;-64
2021/07/27 03:00:10;;;;;;;54.13;24.23;;;;;;;14.29;100.00;100579.03;5001461;28;20068;-65
2021/07/27 03:02:40;;;;;;;60.75;25.92;;;;;;;14.32;100.00;100572.41;4995592;28;20685;-63
2021/07/27 03:05:09;;;;;;;56.33;24.67;;;;;;;14.41;100.00;100579.31;4998491;28;20096;-61
2021/07/27 03:07:48;;;;;;;53.80;24.42;;;;;;;14.36;100.00;100574.53;5000628;28;20038;-62
2021/07/27 03:10:18;;;;;;;60.20;25.45;;;;;;;14.31;100.00;100576.16;4999451;28;20369;-64
2021/07/27 03:12:46;;;;;;;55.40;23.10;;;;;;;14.45;100.00;100583.28;5002619;28;20076;-62
2021/07/27 03:15:15;;;;;;;57.75;26.02;;;;;;;14.42;100.00;100578.31;4998469;28;20042;-61
2021/07/27 03:17:44;;;;;;;57.22;24.13;;;;;;;14.28;100.00;100572.00;5002350;28;20373;-62
2021/07/27 03:20:15;;;;;;;55.35;24.83;;;;;;;14.28;100.00;100569.31;4998053;28;20477;-62
2021/07/27 03:22:43;;;;;;;58.25;24.77;;;;;;;14.26;100.00;100569.50;4996147;28;20038;-62
2021/07/27 03:25:14;;;;;;;62.08;27.20;;;;;;;14.43;100.00;100570.06;5001062;28;20112;-62
2021/07/27 03:27:43;;;;;;;56.58;25.10;;;;;;;14.41;100.00;100563.22;4999431;28;20234;-61
2021/07/27 03:30:11;;;;;;;60.80;27.23;;;;;;;14.49;100.00;100562.22;5001734;28;20038;-62
2021/07/27 03:32:39;;;;;;;68.50;27.25;;;;;;;14.62;100.00;100562.38;4996610;28;20052;-61
2021/07/27 03:35:09;;;;;;;64.75;25.98;;;;;;;14.50;100.00;100559.38;4996817;28;20445;-62
2021/07/27 03:37:37;;;;;;;58.03;26.35;;;;;;;14.75;100.00;100561.63;5001046;28;20038;-62
2021/07/27 03:40:06;;;;;;;68.03;28.02;;;;;;;14.76;100.00;100557.91;4998717;28;20050;-64
2021/07/27 03:42:34;;;;;;;65.97;27.15;;;;;;;14.81;100.00;100568.88;4998533;28;20053;-64
2021/07/27 03:45:03;;;;;;;54.90;24.33;;;;;;;14.87;100.00;100560.06;5001275;28;20319;-62
2021/07/27 03:47:30;;;;;;;59.00;25.80;;;;;;;14.79;100.00;100562.91;5000466;28;20448;-62
2021/07/27 03:49:58;;;;;;;60.28;25.92;;;;;;;14.97;100.00;100562.38;4999739;28;20054;-62
2021/07/27 03:52:28;;;;;;;58.03;25.80;;;;;;;15.11;100.00;100566.81;4998083;28;20389;-63
2021/07/27 03:54:55;;;;;;;52.55;24.63;;;;;;;15.14;100.00;100571.78;4997786;28;20054;-62
2021/07/27 03:57:23;;;;;;;60.17;26.63;;;;;;;15.15;100.00;100572.59;4999304;28;20042;-62
2021/07/27 03:59:52;;;;;;;65.70;27.10;;;;;;;15.24;100.00;100573.25;4994856;28;20068;-62
2021/07/27 04:02:20;;;;;;;59.53;27.83;;;;;;;15.41;100.00;100573.75;4996389;28;20038;-64
2021/07/27 04:04:48;;;;;;;60.05;27.42;;;;;;;15.45;100.00;100575.00;4998554;28;20073;-65
2021/07/27 04:07:16;;;;;;;60.47;26.50;;;;;;;15.57;100.00;100570.72;5000729;28;20042;-64
2021/07/27 04:09:45;;;;;;;58.95;27.38;;;;;;;15.56;100.00;100571.72;4996522;28;20042;-64
2021/07/27 04:12:13;;;;;;;48.72;23.95;;;;;;;15.61;100.00;100568.47;4997932;28;20109;-62
2021/07/27 04:14:41;;;;;;;60.45;27.50;;;;;;;15.62;100.00;100575.47;4997122;28;20046;-64
2021/07/27 04:17:09;;;;;;;62.42;28.08;;;;;;;15.54;100.00;100576.50;4996629;28;20038;-64
2021/07/27 04:19:37;;;;;;;59.25;27.00;;;;;;;15.55;100.00;100580.88;5003986;28;20049;-65
2021/07/27 04:22:05;;;;;;;58.17;25.83;;;;;;;15.61;100.00;100588.13;5003371;28;20061;-64
2021/07/27 04:24:33;;;;;;;59.22;26.90;;;;;;;15.49;100.00;100589.72;4999408;28;20364;-64
2021/07/27 04:27:02;;;;;;;51.15;24.10;;;;;;;15.55;100.00;100582.69;5004128;28;20077;-65
2021/07/27 04:29:30;;;;;;;58.85;26.10;;;;;;;15.59;100.00;100563.28;4999866;28;20046;-65
2021/07/27 04:31:58;;;;;;;51.55;25.17;;;;;;;15.56;100.00;100565.53;5004232;28;20046;-64
2021/07/27 04:34:26;;;;;;;54.95;25.67;;;;;;;15.53;100.00;100574.00;4999503;28;20142;-64
2021/07/27 04:36:54;;;;;;;51.95;22.90;;;;;;;15.53;100.00;100574.00;5000573;28;20063;-64
2021/07/27 04:39:22;;;;;;;58.83;25.67;;;;;;;15.47;100.00;100576.47;5002304;28;20087;-65
2021/07/27 04:41:49;;;;;;;50.78;23.42;;;;;;;15.43;100.00;100574.38;5005246;28;20108;-62
2021/07/27 04:44:19;;;;;;;50.28;24.60;;;;;;;15.43;100.00;100580.59;4999495;28;20039;-63
2021/07/27 04:46:47;;;;;;;59.05;27.15;;;;;;;15.46;100.00;100576.69;4998943;28;20425;-62
2021/07/27 04:49:15;;;;;;;62.20;26.77;;;;;;;15.45;100.00;100573.16;5001064;28;20052;-62
2021/07/27 04:51:43;;;;;;;65.72;27.75;;;;;;;15.43;100.00;100575.22;5002024;28;20050;-64
2021/07/27 04:54:15;;;;;;;62.83;27.45;;;;;;;15.54;100.00;100559.53;4998478;28;20042;-64
2021/07/27 04:56:43;;;;;;;51.20;25.70;;;;;;;15.65;100.00;100550.88;5002915;28;20049;-64
2021/07/27 04:59:11;;;;;;;56.78;26.35;;;;;;;15.62;100.00;100551.25;5002145;28;20034;-64
2021/07/27 05:01:41;;;;;;;53.00;25.88;;;;;;;15.66;100.00;100553.34;5001721;28;20046;-64
2021/07/27 05:04:09;;;;;;;52.45;24.17;;;;;;;15.89;100.00;100552.19;5000040;28;20126;-66
2021/07/27 05:06:38;;;;;;;50.50;22.55;;;;;;;15.94;100.00;100552.41;5003831;28;20038;-63
2021/07/27 05:09:06;;;;;;;47.40;23.83;;;;;;;16.05;100.00;100552.81;4998950;28;20042;-64
2021/07/27 05:11:35;;;;;;;44.72;21.08;;;;;;;16.06;100.00;100551.78;5000003;28;20446;-64
2021/07/27 05:14:03;;;;;;;43.83;21.05;;;;;;;16.15;100.00;100550.56;4999805;28;20069;-64
2021/07/27 05:16:32;;;;;;;42.15;21.20;;;;;;;16.10;100.00;100544.97;4999993;28;20033;-64
2021/07/27 05:19:25;;;;;;;34.83;19.80;;;;;;;16.17;100.00;100533.16;4998516;28;20064;-64
2021/07/27 05:21:54;;;;;;;39.25;19.50;;;;;;;16.16;100.00;100536.88;4978961;28;20054;-63
2021/07/27 05:24:22;;;;;;;35.63;19.27;;;;;;;16.22;100.00;100531.69;4996782;28;20065;-64
2021/07/27 05:26:50;;;;;;;32.70;18.80;;;;;;;16.31;100.00;100527.75;4998846;28;20034;-65
2021/07/27 05:29:19;;;;;;;29.90;16.92;;;;;;;16.45;100.00;100536.66;5000405;28;20049;-64
2021/07/27 05:31:47;;;;;;;33.58;18.40;;;;;;;16.43;100.00;100531.50;4999140;28;20373;-64
2021/07/27 05:34:15;;;;;;;37.33;17.27;;;;;;;16.64;100.00;100524.19;5001322;28;20046;-64
2021/07/27 05:36:45;;;;;;;38.72;19.42;;;;;;;16.49;100.00;100525.25;5000522;28;20045;-64
2021/07/27 05:39:14;;;;;;;32.63;15.73;;;;;;;16.71;100.00;100522.31;4996607;28;20133;-65
2021/07/27 05:41:45;;;;;;;30.30;16.92;;;;;;;16.60;100.00;100518.41;4997811;28;20112;-64
2021/07/27 05:44:13;;;;;;;26.80;14.45;;;;;;;16.93;100.00;100514.00;4994313;28;20052;-64
2021/07/27 05:46:41;;;;;;;33.75;15.98;;;;;;;17.07;100.00;100522.84;4998030;28;20442;-64
2021/07/27 05:49:10;;;;;;;30.33;16.25;;;;;;;17.09;100.00;100532.41;5000310;28;20644;-64
2021/07/27 05:51:39;;;;;;;28.35;15.75;;;;;;;17.23;100.00;100532.38;4996071;28;20358;-62
2021/07/27 05:54:09;;;;;;;29.60;16.15;;;;;;;17.19;100.00;100524.66;4994288;28;20260;-62
2021/07/27 05:56:37;;;;;;;29.05;15.13;;;;;;;17.38;100.00;100533.75;4995043;28;20474;-62
2021/07/27 05:59:05;;;;;;;28.08;16.67;;;;;;;17.53;100.00;100533.44;4999794;28;20034;-62
2021/07/27 06:01:33;;;;;;;28.98;17.13;;;;;;;17.99;100.00;100528.00;4997754;28;20054;-62
2021/07/27 06:04:01;;;;;;;26.00;15.38;;;;;;;18.34;100.00;100533.75;4999187;28;20096;-64
2021/07/27 06:06:32;;;;;;;23.90;14.85;;;;;;;18.10;100.00;100523.75;4997714;28;20043;-66
2021/07/27 06:09:02;;;;;;;26.60;15.05;;;;;;;18.33;100.00;100531.25;4997594;28;20054;-62
2021/07/27 06:11:31;;;;;;;25.48;14.15;;;;;;;18.64;100.00;100524.09;5001120;28;20041;-62
2021/07/27 06:14:01;;;;;;;23.48;13.77;;;;;;;18.93;100.00;100519.88;4994659;28;20087;-62
2021/07/27 06:16:30;;;;;;;24.90;14.45;;;;;;;18.66;100.00;100520.13;4998067;28;20049;-63
2021/07/27 06:18:59;;;;;;;25.63;15.73;;;;;;;18.12;100.00;100522.50;5000413;28;20096;-63
2021/07/27 06:21:27;;;;;;;30.45;14.57;;;;;;;18.71;100.00;100525.69;5000579;28;20506;-63
2021/07/27 06:23:55;;;;;;;28.52;15.68;;;;;;;18.74;100.00;100529.81;4999439;28;20138;-62
2021/07/27 06:26:23;;;;;;;28.27;16.60;;;;;;;19.02;100.00;100531.22;5002699;28;20077;-64
2021/07/27 06:28:52;;;;;;;25.92;15.68;;;;;;;18.09;100.00;100549.97;5004086;28;20038;-63
2021/07/27 06:31:20;;;;;;;30.30;16.63;;;;;;;17.82;100.00;100547.41;5001142;28;20038;-63
2021/07/27 06:33:48;;;;;;;39.25;17.35;;;;;;;17.77;100.00;100551.81;5002566;28;20092;-63
2021/07/27 06:36:16;;;;;;;30.20;16.52;;;;;;;17.69;100.00;100552.88;5004072;28;20042;-64
2021/07/27 06:38:44;;;;;;;30.98;16.23;;;;;;;17.67;100.00;100558.50;4998969;28;20050;-63
2021/07/27 06:41:13;;;;;;;33.58;16.75;;;;;;;17.53;100.00;100557.72;5004682;28;20236;-64
2021/07/27 06:43:43;;;;;;;29.30;16.13;;;;;;;17.43;100.00;100564.66;5000472;28;20050;-64
2021/07/27 06:46:12;;;;;;;35.05;17.55;;;;;;;17.55;100.00;100566.47;5002135;28;20456;-64
2021/07/27 06:48:42;;;;;;;33.58;16.50;;;;;;;17.49;100.00;100575.44;4999332;28;20388;-63
2021/07/27 06:51:11;;;;;;;29.30;15.60;;;;;;;17.68;100.00;100575.53;5000260;28;20034;-64
2021/07/27 06:53:40;;;;;;;32.72;16.20;;;;;;;17.67;100.00;100568.47;4998385;28;20434;-64
2021/07/27 06:56:09;;;;;;;31.02;16.65;;;;;;;17.34;100.00;100574.88;4997950;28;20573;-64
2021/07/27 06:58:38;;;;;;;29.75;16.45;;;;;;;17.47;100.00;100573.97;5000331;28;20061;-64
2021/07/27 07:01:08;;;;;;;31.23;14.70;;;;;;;17.79;100.00;100572.16;4999166;28;20425;-64
2021/07/27 07:03:40;;;;;;;31.95;16.67;;;;;;;17.60;100.00;100575.78;4998637;28;20049;-64
2021/07/27 07:06:09;;;;;;;38.03;17.05;;;;;;;17.46;100.00;100578.53;5000324;28;20378;-64
2021/07/27 07:08:38;;;;;;;27.15;15.55;;;;;;;17.77;100.00;100576.94;5001855;28;20041;-63
2021/07/27 07:11:06;;;;;;;30.70;16.85;;;;;;;17.89;100.00;100575.19;5001688;28;20430;-64
2021/07/27 07:13:35;;;;;;;26.65;14.90;;;;;;;17.85;100.00;100576.69;4996569;28;20041;-64
2021/07/27 07:16:08;;;;;;;25.30;14.50;;;;;;;17.87;100.00;100574.56;4999832;28;20234;-64
2021/07/27 07:18:36;;;;;;;27.85;16.98;;;;;;;17.44;100.00;100579.81;5000643;28;20061;-63
2021/07/27 07:21:07;;;;;;;30.38;16.45;;;;;;;17.54;100.00;100578.28;5001625;28;20049;-64
2021/07/27 07:23:35;;;;;;;31.13;15.90;;;;;;;17.35;100.00;100581.91;4998176;28;20042;-64
2021/07/27 07:26:04;;;;;;;26.40;16.25;;;;;;;17.42;100.00;100581.88;4998237;28;20050;-63
2021/07/27 07:28:32;;;;;;;33.97;19.10;;;;;;;17.25;100.00;100576.13;4999780;28;20097;-63
2021/07/27 07:31:00;;;;;;;38.88;20.98;;;;;;;17.15;100.00;100576.59;5000028;28;20052;-65
2021/07/27 07:33:28;;;;;;;36.92;20.35;;;;;;;17.02;100.00;100594.47;4996305;28;20049;-65
2021/07/27 07:35:56;;;;;;;36.72;20.40;;;;;;;17.14;100.00;100586.56;4997187;28;20049;-65
2021/07/27 07:38:25;;;;;;;38.38;21.02;;;;;;;17.14;100.00;100591.94;4997847;28;20046;-66
2021/07/27 07:40:53;;;;;;;34.40;22.35;;;;;;;17.06;100.00;100581.38;4999982;28;20045;-66
2021/07/27 07:43:22;;;;;;;37.72;20.92;;;;;;;17.38;100.00;100592.28;4997148;28;20092;-66
2021/07/27 07:45:50;;;;;;;37.83;22.10;;;;;;;17.48;100.00;100586.41;5000177;28;20050;-66
2021/07/27 07:48:20;;;;;;;34.60;22.30;;;;;;;17.49;100.00;100585.38;5002529;28;20065;-66
2021/07/27 07:50:48;;;;;;;38.15;19.65;;;;;;;17.70;100.00;100584.25;5000001;28;20414;-65
2021/07/27 07:53:16;;;;;;;38.40;19.92;;;;;;;17.81;100.00;100583.56;5001269;28;20338;-66
2021/07/27 07:55:45;;;;;;;35.80;20.60;;;;;;;17.77;100.00;100587.72;5002515;28;20042;-66
2021/07/27 07:58:13;;;;;;;33.75;19.65;;;;;;;18.33;100.00;100575.34;5006413;28;20370;-66
2021/07/27 08:00:41;;;;;;;36.10;19.02;;;;;;;18.70;100.00;100571.91;5001058;28;20057;-64
2021/07/27 08:03:09;;;;;;;30.85;18.52;;;;;;;18.91;100.00;100567.94;4995768;28;20046;-64
2021/07/27 08:05:37;;;;;;;33.08;18.42;;;;;;;19.08;100.00;100562.78;4999633;28;20037;-64
2021/07/27 08:08:05;;;;;;;31.33;18.25;;;;;;;18.84;100.00;100557.19;5002228;28;20322;-64
2021/07/27 08:10:34;;;;;;;30.05;18.27;;;;;;;19.68;100.00;100553.09;5000045;28;20046;-63
2021/07/27 08:13:03;;;;;;;36.10;18.75;;;;;;;18.92;100.00;100554.22;5002190;28;20359;-63
2021/07/27 08:15:31;;;;;;;30.50;17.33;;;;;;;19.77;100.00;100554.41;4999532;28;20077;-64
2021/07/27 08:17:59;;;;;;;31.25;18.55;;;;;;;19.47;100.00;100570.66;5001211;28;20036;-64
2021/07/27 08:20:29;;;;;;;30.52;16.48;;;;;;;18.61;100.00;100573.22;5001375;28;20042;-64
2021/07/27 08:22:59;;;;;;;26.08;15.50;;;;;;;18.88;100.00;100585.47;5000561;28;20069;-63
2021/07/27 08:25:27;;;;;;;27.73;16.73;;;;;;;18.81;100.00;100589.25;4998767;28;20422;-63
2021/07/27 08:27:55;;;;;;;27.77;17.23;;;;;;;18.67;100.00;100589.41;5002027;28;20049;-64
2021/07/27 08:30:25;;;;;;;27.40;16.48;;;;;;;18.65;100.00;100590.66;5003870;28;20045;-64
2021/07/27 08:32:54;;;;;;;26.08;16.35;;;;;;;18.57;100.00;100592.59;4998948;28;20038;-64
2021/07/27 08:35:23;;;;;;;28.55;16.50;;;;;;;18.60;100.00;100588.63;4998937;28;20061;-64
2021/07/27 08:37:52;;;;;;;26.65;14.02;;;;;;;18.81;100.00;100584.69;4997455;28;20495;-64
2021/07/27 08:40:22;;;;;;;26.15;14.45;;;;;;;18.78;100.00;100577.00;4998916;28;20469;-66
2021/07/27 08:42:50;;;;;;;24.17;13.35;;;;;;;19.03;100.00;100576.16;4998271;28;20358;-66
2021/07/27 08:45:18;;;;;;;21.55;13.30;;;;;;;19.24;100.00;100578.41;5000722;28;20050;-63
2021/07/27 08:47:49;;;;;;;21.65;12.52;;;;;;;19.11;100.00;100575.88;4999852;28;20394;-63
2021/07/27 08:50:18;;;;;;;24.85;13.75;;;;;;;19.23;100.00;100576.75;4998807;28;20069;-64
2021/07/27 08:52:46;;;;;;;26.83;14.02;;;;;;;18.74;100.00;100590.16;4999052;28;20060;-64
2021/07/27 08:55:15;;;;;;;26.08;14.15;;;;;;;18.90;100.00;100593.38;5004073;28;20049;-64
2021/07/27 08:57:47;;;;;;;25.25;14.65;;;;;;;18.50;100.00;100602.66;5002338;28;20046;-64
2021/07/27 09:00:16;;;;;;;36.85;16.02;;;;;;;18.50;100.00;100609.91;5002636;28;20689;-64
2021/07/27 09:02:43;;;;;;;22.98;14.52;;;;;;;18.43;100.00;100607.28;4996689;28;20054;-63
2021/07/27 09:05:14;;;;;;;31.85;15.70;;;;;;;18.59;100.00;100605.91;5000119;28;20508;-64
2021/07/27 09:07:42;;;;;;;30.00;15.20;;;;;;;18.55;100.00;100607.38;5000992;28;20047;-63
2021/07/27 09:10:15;;;;;;;25.55;14.57;;;;;;;18.89;100.00;100607.94;5003099;28;20122;-63
2021/07/27 09:12:56;;;;;;;28.38;15.52;;;;;;;18.92;100.00;100608.34;5006058;28;20517;-64
2021/07/27 09:15:24;;;;;;;25.60;14.98;;;;;;;18.96;100.00;100613.28;5002666;28;20128;-63
2021/07/27 09:17:53;;;;;;;29.67;14.35;;;;;;;19.31;100.00;100600.00;5002491;28;20049;-63
2021/07/27 09:20:34;;;;;;;23.88;14.63;;;;;;;19.52;100.00;100593.28;5002731;28;20388;-63
2021/07/27 09:23:04;;;;;;;28.60;15.55;;;;;;;19.64;100.00;100593.34;5001356;28;20045;-63
2021/07/27 09:25:33;;;;;;;27.00;14.73;;;;;;;19.79;100.00;100587.56;5001060;28;20049;-63
2021/07/27 09:28:08;;;;;;;25.27;14.23;;;;;;;19.76;100.00;100574.41;5003774;28;20089;-63
2021/07/27 09:30:37;;;;;;;29.65;14.15;;;;;;;19.93;100.00;100577.31;5002251;28;20050;-64
2021/07/27 09:33:05;;;;;;;27.52;15.73;;;;;;;19.63;100.00;100586.25;5000054;28;20099;-63
2021/07/27 09:35:35;;;;;;;32.20;16.38;;;;;;;19.50;100.00;100584.56;5002891;28;20042;-64
2021/07/27 09:38:04;;;;;;;25.75;15.10;;;;;;;19.54;100.00;100582.22;4993739;28;20425;-63
2021/07/27 09:40:32;;;;;;;26.98;15.82;;;;;;;20.39;100.00;100572.25;4995543;28;20050;-64
2021/07/27 09:43:01;;;;;;;25.67;14.70;;;;;;;20.87;100.00;100568.50;4995457;28;20047;-63
2021/07/27 09:45:29;;;;;;;31.05;16.75;;;;;;;21.46;100.00;100546.66;4996264;28;20076;-64
2021/07/27 09:47:57;;;;;;;25.50;13.95;;;;;;;21.84;100.00;100545.19;5002028;28;20046;-63
2021/07/27 09:50:26;;;;;;;21.10;13.65;;;;;;;21.41;100.00;100545.72;5002259;28;20054;-64
2021/07/27 09:52:55;;;;;;;20.95;12.70;;;;;;;21.70;100.00;100551.97;5003861;28;20045;-64
2021/07/27 09:55:23;;;;;;;24.95;13.65;;;;;;;20.91;100.00;100550.69;4999758;28;20299;-64
2021/07/27 09:57:52;;;;;;;26.02;13.02;;;;;;;22.21;100.00;100524.84;5003804;28;20269;-64
2021/07/27 10:00:25;;;;;;;20.70;12.43;;;;;;;22.70;100.00;100497.84;5002609;28;20057;-64
2021/07/27 10:02:53;;;;;;;22.23;11.68;;;;;;;22.48;100.00;100505.16;4997103;28;20108;-64
2021/07/27 10:05:23;;;;;;;24.15;12.68;;;;;;;22.15;100.00;100512.25;4999088;28;20051;-64
2021/07/27 10:07:59;;;;;;;17.85;10.75;;;;;;;22.04;100.00;100537.63;4996878;28;20405;-64
2021/07/27 10:10:43;;;;;;;17.08;11.32;;;;;;;22.21;100.00;100535.72;4998675;28;20399;-64
2021/07/27 10:13:13;;;;;;;20.90;11.77;;;;;;;22.06;100.00;100530.03;5002065;28;20034;-64
2021/07/27 10:15:43;;;;;;;21.67;11.88;;;;;;;22.08;100.00;100534.16;4993812;28;20125;-64
2021/07/27 10:18:11;;;;;;;21.70;11.95;;;;;;;21.22;100.00;100526.06;5002772;28;20042;-63
2021/07/27 10:20:39;;;;;;;19.85;11.40;;;;;;;21.71;100.00;100533.81;5004539;28;20041;-64
2021/07/27 10:23:16;;;;;;;20.05;12.15;;;;;;;21.42;100.00;100552.78;4997135;28;20097;-64
2021/07/27 10:25:57;;;;;;;18.27;12.38;;;;;;;21.71;100.00;100550.13;4998427;28;20061;-64
2021/07/27 10:28:27;;;;;;;18.65;12.70;;;;;;;21.06;100.00;100552.06;4996293;28;20038;-63
2021/07/27 10:31:08;;;;;;;20.52;12.93;;;;;;;21.19;100.00;100549.06;4995755;28;20311;-64
2021/07/27 10:33:37;;;;;;;17.73;12.10;;;;;;;21.97;100.00;100552.22;5001325;28;20041;-64
2021/07/27 10:36:05;;;;;;;22.75;11.95;;;;;;;20.83;100.00;100544.81;4995164;28;20488;-63
2021/07/27 10:38:39;;;;;;;18.23;10.63;;;;;;;21.90;100.00;100529.81;5001216;28;20049;-64
2021/07/27 10:41:18;;;;;;;19.88;10.88;;;;;;;21.86;100.00;100534.09;4995222;28;20042;-63
2021/07/27 10:43:46;;;;;;;22.10;11.43;;;;;;;23.47;100.00;100527.13;4996905;28;20046;-64
2021/07/27 10:46:14;;;;;;;15.90;9.05;;;;;;;23.80;100.00;100525.25;4998319;28;20069;-64
2021/07/27 10:48:42;;;;;;;14.88;9.60;;;;;;;22.99;100.00;100527.63;4996384;28;20105;-63
2021/07/27 10:51:10;;;;;;;17.50;9.57;;;;;;;23.02;100.00;100518.97;5001834;28;20042;-63
2021/07/27 10:53:42;;;;;;;19.42;10.70;;;;;;;23.21;100.00;100524.13;4994560;28;20037;-64
2021/07/27 10:56:10;;;;;;;19.50;11.02;;;;;;;22.97;100.00;100529.78;4996839;28;20046;-64
2021/07/27 10:58:38;;;;;;;17.20;10.82;;;;;;;23.83;100.00;100520.13;4997511;28;20435;-64
2021/07/27 11:01:10;;;;;;;17.00;10.52;;;;;;;24.96;100.00;100508.34;4995267;28;20088;-63
2021/07/27 11:03:40;;;;;;;16.60;10.00;;;;;;;25.13;100.00;100506.22;4995791;28;20122;-63
2021/07/27 11:06:09;;;;;;;17.98;9.77;;;;;;;24.15;100.00;100510.31;5000704;28;20052;-63
2021/07/27 11:08:37;;;;;;;16.73;9.32;;;;;;;24.01;100.00;100505.28;4995842;28;20046;-64
2021/07/27 11:11:07;;;;;;;17.30;10.13;;;;;;;24.21;100.00;100509.25;4998184;28;20729;-63
2021/07/27 11:13:36;;;;;;;15.70;8.80;;;;;;;25.08;100.00;100504.31;4995924;28;20042;-63
2021/07/27 11:16:04;;;;;;;17.38;8.77;;;;;;;25.23;100.00;100505.44;4996746;28;20045;-64
2021/07/27 11:18:33;;;;;;;14.43;9.82;;;;;;;24.12;100.00;100505.38;4997698;28;20049;-64
2021/07/27 11:21:01;;;;;;;15.10;9.57;;;;;;;23.80;100.00;100500.72;4994200;28;20045;-64
2021/07/27 11:23:34;;;;;;;16.38;9.30;;;;;;;24.57;100.00;100493.13;5009575;28;20054;-63
2021/07/27 11:26:03;;;;;;;15.30;9.73;;;;;;;23.84;100.00;100485.50;4994482;28;20390;-64